sensor_id;sensor_type;location;lat;lon;timestamp;temperature;humidity
18339;DHT22;9295;44.484;11.240;2023-05-17T00:01:49;13.20;99.90
18339;DHT22;9295;44.484;11.240;2023-05-17T00:04:17;13.20;99.90
18339;DHT22;9295;44.484;11.240;2023-05-17T00:06:47;13.20;99.90
18339;DHT22;9295;44.484;11.240;2023-05-17T00:09:15;13.20;99.90
18339;DHT22;9295;44.484;11.240;2023-05-17T00:11:44;13.20;99.90
18339;DHT22;9295;44.484;11.240;2023-05-17T00:14:12;13.20;99.90
18339;DHT22;9295;44.484;11.240;2023-05-17T00:16:40;13.20;99.90
18339;DHT22;9295;44.484;11.240;2023-05-17T00:19:09;13.20;99.90
18339;DHT22;9295;44.484;11.240;2023-05-17T00:21:37;13.20;99.90
18339;DHT22;9295;44.484;11.240;2023-05-17T00:24:07;13.20;99.90
18339;DHT22;9295;44.484;11.240;2023-05-17T00:26:36;13.20;99.90
18339;DHT22;9295;44.484;11.240;2023-05-17T00:29:04;13.30;99.90
18339;DHT22;9295;44.484;11.240;2023-05-17T00:31:33;13.30;99.90
18339;DHT22;9295;44.484;11.240;2023-05-17T00:34:01;13.30;99.90
18339;DHT22;9295;44.484;11.240;2023-05-17T00:36:29;13.30;99.90
18339;DHT22;9295;44.484;11.240;2023-05-17T00:38:58;13.30;99.90
18339;DHT22;9295;44.484;11.240;2023-05-17T00:41:27;13.30;99.90
18339;DHT22;9295;44.484;11.240;2023-05-17T00:43:56;13.30;99.90
18339;DHT22;9295;44.484;11.240;2023-05-17T00:46:24;13.30;99.90
18339;DHT22;9295;44.484;11.240;2023-05-17T00:48:53;13.30;99.90
18339;DHT22;9295;44.484;11.240;2023-05-17T00:51:21;13.30;99.90
18339;DHT22;9295;44.484;11.240;2023-05-17T00:53:50;13.30;99.90
18339;DHT22;9295;44.484;11.240;2023-05-17T00:56:19;13.30;99.90
18339;DHT22;9295;44.484;11.240;2023-05-17T00:58:49;13.30;99.90
18339;DHT22;9295;44.484;11.240;2023-05-17T01:01:17;13.30;99.90
18339;DHT22;9295;44.484;11.240;2023-05-17T01:03:46;13.30;99.90
18339;DHT22;9295;44.484;11.240;2023-05-17T01:06:15;13.30;99.90
18339;DHT22;9295;44.484;11.240;2023-05-17T01:08:44;13.30;99.90
18339;DHT22;9295;44.484;11.240;2023-05-17T01:11:17;13.30;99.90
18339;DHT22;9295;44.484;11.240;2023-05-17T01:13:57;13.30;99.90
18339;DHT22;9295;44.484;11.240;2023-05-17T01:16:32;13.30;99.90
18339;DHT22;9295;44.484;11.240;2023-05-17T01:19:07;13.30;99.90
18339;DHT22;9295;44.484;11.240;2023-05-17T01:21:49;13.30;99.90
18339;DHT22;9295;44.484;11.240;2023-05-17T01:24:26;13.30;99.90
18339;DHT22;9295;44.484;11.240;2023-05-17T01:26:58;13.30;99.90
18339;DHT22;9295;44.484;11.240;2023-05-17T01:29:28;13.30;99.90
18339;DHT22;9295;44.484;11.240;2023-05-17T01:31:57;13.30;99.90
18339;DHT22;9295;44.484;11.240;2023-05-17T01:34:27;13.30;99.90
18339;DHT22;9295;44.484;11.240;2023-05-17T01:36:56;13.30;99.90
18339;DHT22;9295;44.484;11.240;2023-05-17T01:39:24;13.30;99.90
18339;DHT22;9295;44.484;11.240;2023-05-17T01:41:59;13.30;99.90
18339;DHT22;9295;44.484;11.240;2023-05-17T01:44:37;13.30;99.90
18339;DHT22;9295;44.484;11.240;2023-05-17T01:47:17;13.30;99.90
18339;DHT22;9295;44.484;11.240;2023-05-17T01:49:51;13.30;99.90
18339;DHT22;9295;44.484;11.240;2023-05-17T01:52:28;13.20;99.90
18339;DHT22;9295;44.484;11.240;2023-05-17T01:55:04;13.30;99.90
18339;DHT22;9295;44.484;11.240;2023-05-17T01:57:35;13.30;99.90
18339;DHT22;9295;44.484;11.240;2023-05-17T02:00:06;13.30;99.90
18339;DHT22;9295;44.484;11.240;2023-05-17T02:02:43;13.30;99.90
18339;DHT22;9295;44.484;11.240;2023-05-17T02:05:12;13.30;99.90
18339;DHT22;9295;44.484;11.240;2023-05-17T02:07:41;13.30;99.90
18339;DHT22;9295;44.484;11.240;2023-05-17T02:10:09;13.30;99.90
18339;DHT22;9295;44.484;11.240;2023-05-17T02:12:43;13.30;99.90
18339;DHT22;9295;44.484;11.240;2023-05-17T02:15:11;13.30;99.90
18339;DHT22;9295;44.484;11.240;2023-05-17T02:17:40;13.30;99.90
18339;DHT22;9295;44.484;11.240;2023-05-17T02:20:09;13.30;99.90
18339;DHT22;9295;44.484;11.240;2023-05-17T02:22:38;13.30;99.90
18339;DHT22;9295;44.484;11.240;2023-05-17T02:25:07;13.20;99.90
18339;DHT22;9295;44.484;11.240;2023-05-17T02:27:36;13.20;99.90
18339;DHT22;9295;44.484;11.240;2023-05-17T02:30:06;13.30;99.90
18339;DHT22;9295;44.484;11.240;2023-05-17T02:32:35;13.30;99.90
18339;DHT22;9295;44.484;11.240;2023-05-17T02:35:06;13.20;99.90
18339;DHT22;9295;44.484;11.240;2023-05-17T02:37:35;13.30;99.90
18339;DHT22;9295;44.484;11.240;2023-05-17T02:40:05;13.30;99.90
18339;DHT22;9295;44.484;11.240;2023-05-17T02:42:36;13.30;99.90
18339;DHT22;9295;44.484;11.240;2023-05-17T02:45:06;13.20;99.90
18339;DHT22;9295;44.484;11.240;2023-05-17T02:47:35;13.30;99.90
18339;DHT22;9295;44.484;11.240;2023-05-17T02:50:04;13.30;99.90
18339;DHT22;9295;44.484;11.240;2023-05-17T02:52:33;13.30;99.90
18339;DHT22;9295;44.484;11.240;2023-05-17T02:55:04;13.30;99.90
18339;DHT22;9295;44.484;11.240;2023-05-17T02:57:33;13.20;99.90
18339;DHT22;9295;44.484;11.240;2023-05-17T03:00:02;13.20;99.90
18339;DHT22;9295;44.484;11.240;2023-05-17T03:02:33;13.30;99.90
18339;DHT22;9295;44.484;11.240;2023-05-17T03:05:03;13.20;99.90
18339;DHT22;9295;44.484;11.240;2023-05-17T03:07:32;13.20;99.90
18339;DHT22;9295;44.484;11.240;2023-05-17T03:10:01;13.20;99.90
18339;DHT22;9295;44.484;11.240;2023-05-17T03:12:35;13.30;99.90
18339;DHT22;9295;44.484;11.240;2023-05-17T03:15:05;13.30;99.90
18339;DHT22;9295;44.484;11.240;2023-05-17T03:17:35;13.30;99.90
18339;DHT22;9295;44.484;11.240;2023-05-17T03:20:05;13.30;99.90
18339;DHT22;9295;44.484;11.240;2023-05-17T03:22:35;13.30;99.90
18339;DHT22;9295;44.484;11.240;2023-05-17T03:25:04;13.20;99.90
18339;DHT22;9295;44.484;11.240;2023-05-17T03:27:33;13.20;99.90
18339;DHT22;9295;44.484;11.240;2023-05-17T03:30:02;13.20;99.90
18339;DHT22;9295;44.484;11.240;2023-05-17T03:32:31;13.20;99.90
18339;DHT22;9295;44.484;11.240;2023-05-17T03:35:01;13.20;99.90
18339;DHT22;9295;44.484;11.240;2023-05-17T03:37:30;13.20;99.90
18339;DHT22;9295;44.484;11.240;2023-05-17T03:39:58;13.20;99.90
18339;DHT22;9295;44.484;11.240;2023-05-17T03:42:27;13.20;99.90
18339;DHT22;9295;44.484;11.240;2023-05-17T03:44:55;13.20;99.90
18339;DHT22;9295;44.484;11.240;2023-05-17T03:47:24;13.20;99.90
18339;DHT22;9295;44.484;11.240;2023-05-17T03:49:53;13.20;99.90
18339;DHT22;9295;44.484;11.240;2023-05-17T03:52:23;13.30;99.90
18339;DHT22;9295;44.484;11.240;2023-05-17T03:54:52;13.30;99.90
18339;DHT22;9295;44.484;11.240;2023-05-17T03:57:20;13.30;99.90
18339;DHT22;9295;44.484;11.240;2023-05-17T03:59:49;13.20;99.90
18339;DHT22;9295;44.484;11.240;2023-05-17T04:02:19;13.20;99.90
18339;DHT22;9295;44.484;11.240;2023-05-17T04:04:48;13.30;99.90
18339;DHT22;9295;44.484;11.240;2023-05-17T04:07:18;13.20;99.90
18339;DHT22;9295;44.484;11.240;2023-05-17T04:09:47;13.20;99.90
18339;DHT22;9295;44.484;11.240;2023-05-17T04:12:16;13.30;99.90
18339;DHT22;9295;44.484;11.240;2023-05-17T04:14:44;13.30;99.90
18339;DHT22;9295;44.484;11.240;2023-05-17T04:17:13;13.30;99.90
18339;DHT22;9295;44.484;11.240;2023-05-17T04:19:44;13.20;99.90
18339;DHT22;9295;44.484;11.240;2023-05-17T04:22:13;13.30;99.90
18339;DHT22;9295;44.484;11.240;2023-05-17T04:24:42;13.30;99.90
18339;DHT22;9295;44.484;11.240;2023-05-17T04:27:12;13.30;99.90
18339;DHT22;9295;44.484;11.240;2023-05-17T04:29:41;13.20;99.90
18339;DHT22;9295;44.484;11.240;2023-05-17T04:32:10;13.20;99.90
18339;DHT22;9295;44.484;11.240;2023-05-17T04:34:38;13.20;99.90
18339;DHT22;9295;44.484;11.240;2023-05-17T04:37:08;13.20;99.90
18339;DHT22;9295;44.484;11.240;2023-05-17T04:39:37;13.20;99.90
18339;DHT22;9295;44.484;11.240;2023-05-17T04:42:06;13.20;99.90
18339;DHT22;9295;44.484;11.240;2023-05-17T04:44:40;13.20;99.90
18339;DHT22;9295;44.484;11.240;2023-05-17T04:47:11;13.20;99.90
18339;DHT22;9295;44.484;11.240;2023-05-17T04:49:40;13.30;99.90
18339;DHT22;9295;44.484;11.240;2023-05-17T04:52:09;13.20;99.90
18339;DHT22;9295;44.484;11.240;2023-05-17T04:54:38;13.20;99.90
18339;DHT22;9295;44.484;11.240;2023-05-17T04:57:06;13.20;99.90
18339;DHT22;9295;44.484;11.240;2023-05-17T04:59:58;13.20;99.90
18339;DHT22;9295;44.484;11.240;2023-05-17T05:02:27;13.20;99.90
18339;DHT22;9295;44.484;11.240;2023-05-17T05:04:55;13.30;99.90
18339;DHT22;9295;44.484;11.240;2023-05-17T05:07:25;13.20;99.90
18339;DHT22;9295;44.484;11.240;2023-05-17T05:09:54;13.20;99.90
18339;DHT22;9295;44.484;11.240;2023-05-17T05:12:23;13.20;99.90
18339;DHT22;9295;44.484;11.240;2023-05-17T05:14:52;13.20;99.90
18339;DHT22;9295;44.484;11.240;2023-05-17T05:17:22;13.20;99.90
18339;DHT22;9295;44.484;11.240;2023-05-17T05:19:51;13.20;99.90
18339;DHT22;9295;44.484;11.240;2023-05-17T05:22:20;13.20;99.90
18339;DHT22;9295;44.484;11.240;2023-05-17T05:24:48;13.20;99.90
18339;DHT22;9295;44.484;11.240;2023-05-17T05:27:17;13.20;99.90
18339;DHT22;9295;44.484;11.240;2023-05-17T05:29:46;13.20;99.90
18339;DHT22;9295;44.484;11.240;2023-05-17T05:32:14;13.20;99.90
18339;DHT22;9295;44.484;11.240;2023-05-17T05:34:46;13.20;99.90
18339;DHT22;9295;44.484;11.240;2023-05-17T05:37:15;13.20;99.90
18339;DHT22;9295;44.484;11.240;2023-05-17T05:39:45;13.20;99.90
18339;DHT22;9295;44.484;11.240;2023-05-17T05:42:14;13.10;99.90
18339;DHT22;9295;44.484;11.240;2023-05-17T05:44:42;13.10;99.90
18339;DHT22;9295;44.484;11.240;2023-05-17T05:47:11;13.10;99.90
18339;DHT22;9295;44.484;11.240;2023-05-17T05:49:39;13.10;99.90
18339;DHT22;9295;44.484;11.240;2023-05-17T05:52:09;13.10;99.90
18339;DHT22;9295;44.484;11.240;2023-05-17T05:54:38;13.10;99.90
18339;DHT22;9295;44.484;11.240;2023-05-17T05:57:07;13.20;99.90
18339;DHT22;9295;44.484;11.240;2023-05-17T05:59:36;13.20;99.90
18339;DHT22;9295;44.484;11.240;2023-05-17T06:02:05;13.20;99.90
18339;DHT22;9295;44.484;11.240;2023-05-17T06:04:34;13.30;99.90
18339;DHT22;9295;44.484;11.240;2023-05-17T06:07:13;13.20;99.90
18339;DHT22;9295;44.484;11.240;2023-05-17T06:09:42;13.30;99.90
18339;DHT22;9295;44.484;11.240;2023-05-17T06:12:10;13.20;99.90
18339;DHT22;9295;44.484;11.240;2023-05-17T06:14:39;13.30;99.90
18339;DHT22;9295;44.484;11.240;2023-05-17T06:17:07;13.20;99.90
18339;DHT22;9295;44.484;11.240;2023-05-17T06:19:36;13.20;99.90
18339;DHT22;9295;44.484;11.240;2023-05-17T06:22:05;13.20;99.90
18339;DHT22;9295;44.484;11.240;2023-05-17T06:24:36;13.30;99.90
18339;DHT22;9295;44.484;11.240;2023-05-17T06:27:04;13.30;99.90
18339;DHT22;9295;44.484;11.240;2023-05-17T06:29:33;13.30;99.90
18339;DHT22;9295;44.484;11.240;2023-05-17T06:32:02;13.30;99.90
18339;DHT22;9295;44.484;11.240;2023-05-17T06:34:31;13.20;99.90
18339;DHT22;9295;44.484;11.240;2023-05-17T06:36:59;13.10;99.90
18339;DHT22;9295;44.484;11.240;2023-05-17T06:39:28;13.10;99.90
18339;DHT22;9295;44.484;11.240;2023-05-17T06:41:57;13.10;99.90
18339;DHT22;9295;44.484;11.240;2023-05-17T06:44:26;13.20;99.90
18339;DHT22;9295;44.484;11.240;2023-05-17T06:46:54;13.20;99.90
18339;DHT22;9295;44.484;11.240;2023-05-17T06:49:23;13.30;99.90
18339;DHT22;9295;44.484;11.240;2023-05-17T06:51:51;13.30;99.90
18339;DHT22;9295;44.484;11.240;2023-05-17T06:54:21;13.40;99.90
18339;DHT22;9295;44.484;11.240;2023-05-17T06:56:50;13.40;99.90
18339;DHT22;9295;44.484;11.240;2023-05-17T06:59:19;13.50;99.90
18339;DHT22;9295;44.484;11.240;2023-05-17T07:01:48;13.50;99.90
18339;DHT22;9295;44.484;11.240;2023-05-17T07:04:16;13.50;99.90
18339;DHT22;9295;44.484;11.240;2023-05-17T07:06:45;13.50;99.90
18339;DHT22;9295;44.484;11.240;2023-05-17T07:09:13;13.50;99.90
18339;DHT22;9295;44.484;11.240;2023-05-17T07:11:42;13.50;99.90
18339;DHT22;9295;44.484;11.240;2023-05-17T07:14:10;13.50;99.90
18339;DHT22;9295;44.484;11.240;2023-05-17T07:16:40;13.50;99.90
18339;DHT22;9295;44.484;11.240;2023-05-17T07:19:08;13.40;99.90
18339;DHT22;9295;44.484;11.240;2023-05-17T07:21:37;13.50;99.90
18339;DHT22;9295;44.484;11.240;2023-05-17T07:24:06;13.50;99.90
18339;DHT22;9295;44.484;11.240;2023-05-17T07:26:35;13.60;99.90
18339;DHT22;9295;44.484;11.240;2023-05-17T07:29:03;13.60;99.90
18339;DHT22;9295;44.484;11.240;2023-05-17T07:31:32;13.60;99.90
18339;DHT22;9295;44.484;11.240;2023-05-17T07:34:03;13.50;99.90
18339;DHT22;9295;44.484;11.240;2023-05-17T07:36:31;13.50;99.90
18339;DHT22;9295;44.484;11.240;2023-05-17T07:39:00;13.60;99.90
18339;DHT22;9295;44.484;11.240;2023-05-17T07:41:28;13.80;99.90
18339;DHT22;9295;44.484;11.240;2023-05-17T07:43:57;13.90;99.90
18339;DHT22;9295;44.484;11.240;2023-05-17T07:46:26;13.90;99.90
18339;DHT22;9295;44.484;11.240;2023-05-17T07:48:54;14.00;99.90
18339;DHT22;9295;44.484;11.240;2023-05-17T07:51:26;14.00;99.90
18339;DHT22;9295;44.484;11.240;2023-05-17T07:53:54;14.00;99.90
18339;DHT22;9295;44.484;11.240;2023-05-17T07:56:23;14.10;99.90
18339;DHT22;9295;44.484;11.240;2023-05-17T07:58:51;14.10;99.90
18339;DHT22;9295;44.484;11.240;2023-05-17T08:01:20;14.00;99.90
18339;DHT22;9295;44.484;11.240;2023-05-17T08:03:49;14.10;99.90
18339;DHT22;9295;44.484;11.240;2023-05-17T08:06:17;14.10;99.90
18339;DHT22;9295;44.484;11.240;2023-05-17T08:08:47;14.20;99.90
18339;DHT22;9295;44.484;11.240;2023-05-17T08:11:16;14.30;99.90
18339;DHT22;9295;44.484;11.240;2023-05-17T08:13:44;14.30;99.90
18339;DHT22;9295;44.484;11.240;2023-05-17T08:16:13;14.40;99.90
18339;DHT22;9295;44.484;11.240;2023-05-17T08:18:41;14.40;99.90
18339;DHT22;9295;44.484;11.240;2023-05-17T08:21:10;14.50;99.90
18339;DHT22;9295;44.484;11.240;2023-05-17T08:23:39;14.50;99.90
18339;DHT22;9295;44.484;11.240;2023-05-17T08:26:09;14.50;99.90
18339;DHT22;9295;44.484;11.240;2023-05-17T08:28:39;14.60;99.90
18339;DHT22;9295;44.484;11.240;2023-05-17T08:31:07;14.60;99.90
18339;DHT22;9295;44.484;11.240;2023-05-17T08:33:35;14.60;99.90
18339;DHT22;9295;44.484;11.240;2023-05-17T08:36:04;14.60;99.90
18339;DHT22;9295;44.484;11.240;2023-05-17T08:38:34;14.60;99.90
18339;DHT22;9295;44.484;11.240;2023-05-17T08:41:03;14.60;99.90
18339;DHT22;9295;44.484;11.240;2023-05-17T08:43:33;14.60;99.90
18339;DHT22;9295;44.484;11.240;2023-05-17T08:46:02;14.60;99.90
18339;DHT22;9295;44.484;11.240;2023-05-17T08:48:31;14.70;99.90
18339;DHT22;9295;44.484;11.240;2023-05-17T08:51:03;14.70;99.90
18339;DHT22;9295;44.484;11.240;2023-05-17T08:53:31;14.80;99.90
18339;DHT22;9295;44.484;11.240;2023-05-17T08:56:02;15.00;99.90
18339;DHT22;9295;44.484;11.240;2023-05-17T08:58:35;15.10;99.90
18339;DHT22;9295;44.484;11.240;2023-05-17T09:01:22;15.20;99.90
18339;DHT22;9295;44.484;11.240;2023-05-17T09:03:53;15.30;99.90
18339;DHT22;9295;44.484;11.240;2023-05-17T09:06:23;15.20;99.90
18339;DHT22;9295;44.484;11.240;2023-05-17T09:08:52;15.20;99.90
18339;DHT22;9295;44.484;11.240;2023-05-17T09:11:26;15.20;99.90
18339;DHT22;9295;44.484;11.240;2023-05-17T09:13:59;15.20;99.90
18339;DHT22;9295;44.484;11.240;2023-05-17T09:16:28;15.10;99.90
18339;DHT22;9295;44.484;11.240;2023-05-17T09:18:58;15.10;99.90
18339;DHT22;9295;44.484;11.240;2023-05-17T09:21:28;15.10;99.90
18339;DHT22;9295;44.484;11.240;2023-05-17T09:23:58;15.00;99.90
18339;DHT22;9295;44.484;11.240;2023-05-17T09:26:40;15.00;99.90
18339;DHT22;9295;44.484;11.240;2023-05-17T09:29:11;14.90;99.90
18339;DHT22;9295;44.484;11.240;2023-05-17T09:31:41;15.00;99.90
18339;DHT22;9295;44.484;11.240;2023-05-17T09:34:10;15.10;99.90
18339;DHT22;9295;44.484;11.240;2023-05-17T09:36:41;15.10;99.90
18339;DHT22;9295;44.484;11.240;2023-05-17T09:39:10;15.10;99.90
18339;DHT22;9295;44.484;11.240;2023-05-17T09:41:42;15.10;99.90
18339;DHT22;9295;44.484;11.240;2023-05-17T09:44:14;15.10;99.90
18339;DHT22;9295;44.484;11.240;2023-05-17T09:46:44;15.10;99.90
18339;DHT22;9295;44.484;11.240;2023-05-17T09:49:13;15.10;99.90
18339;DHT22;9295;44.484;11.240;2023-05-17T09:51:44;15.10;99.90
18339;DHT22;9295;44.484;11.240;2023-05-17T09:54:13;15.10;99.90
18339;DHT22;9295;44.484;11.240;2023-05-17T09:56:43;15.10;99.90
18339;DHT22;9295;44.484;11.240;2023-05-17T09:59:15;15.10;99.90
18339;DHT22;9295;44.484;11.240;2023-05-17T10:01:44;15.10;99.90
18339;DHT22;9295;44.484;11.240;2023-05-17T10:04:12;15.00;99.90
18339;DHT22;9295;44.484;11.240;2023-05-17T10:06:48;15.10;99.90
18339;DHT22;9295;44.484;11.240;2023-05-17T10:09:21;15.10;99.90
18339;DHT22;9295;44.484;11.240;2023-05-17T10:11:51;15.20;99.90
18339;DHT22;9295;44.484;11.240;2023-05-17T10:14:25;15.20;99.90
18339;DHT22;9295;44.484;11.240;2023-05-17T10:16:55;15.10;99.90
18339;DHT22;9295;44.484;11.240;2023-05-17T10:19:24;15.00;99.90
18339;DHT22;9295;44.484;11.240;2023-05-17T10:21:54;15.00;99.90
18339;DHT22;9295;44.484;11.240;2023-05-17T10:24:44;15.10;99.90
18339;DHT22;9295;44.484;11.240;2023-05-17T10:27:13;15.20;99.90
18339;DHT22;9295;44.484;11.240;2023-05-17T10:29:44;15.20;99.90
18339;DHT22;9295;44.484;11.240;2023-05-17T10:32:18;15.30;99.90
18339;DHT22;9295;44.484;11.240;2023-05-17T10:34:49;15.30;99.90
18339;DHT22;9295;44.484;11.240;2023-05-17T10:37:37;15.30;99.90
18339;DHT22;9295;44.484;11.240;2023-05-17T10:40:07;15.40;99.90
18339;DHT22;9295;44.484;11.240;2023-05-17T10:42:42;15.30;99.90
18339;DHT22;9295;44.484;11.240;2023-05-17T10:45:13;15.40;99.90
18339;DHT22;9295;44.484;11.240;2023-05-17T10:47:42;15.40;99.90
18339;DHT22;9295;44.484;11.240;2023-05-17T10:50:12;15.50;99.90
18339;DHT22;9295;44.484;11.240;2023-05-17T10:52:53;15.50;99.90
18339;DHT22;9295;44.484;11.240;2023-05-17T10:55:35;15.40;99.90
18339;DHT22;9295;44.484;11.240;2023-05-17T10:58:12;15.40;99.90
18339;DHT22;9295;44.484;11.240;2023-05-17T11:00:45;15.40;99.90
18339;DHT22;9295;44.484;11.240;2023-05-17T11:03:16;15.50;99.90
18339;DHT22;9295;44.484;11.240;2023-05-17T11:06:11;15.60;99.90
18339;DHT22;9295;44.484;11.240;2023-05-17T11:09:07;15.70;99.90
18339;DHT22;9295;44.484;11.240;2023-05-17T11:12:05;15.70;99.90
18339;DHT22;9295;44.484;11.240;2023-05-17T11:14:47;15.60;99.90
18339;DHT22;9295;44.484;11.240;2023-05-17T11:17:18;15.50;99.90
18339;DHT22;9295;44.484;11.240;2023-05-17T11:20:05;15.50;99.90
18339;DHT22;9295;44.484;11.240;2023-05-17T11:22:41;15.50;99.90
18339;DHT22;9295;44.484;11.240;2023-05-17T11:25:11;15.50;99.90
18339;DHT22;9295;44.484;11.240;2023-05-17T11:27:44;15.40;99.90
18339;DHT22;9295;44.484;11.240;2023-05-17T11:30:16;15.40;99.90
18339;DHT22;9295;44.484;11.240;2023-05-17T11:32:48;15.40;99.90
18339;DHT22;9295;44.484;11.240;2023-05-17T11:35:18;15.70;99.90
18339;DHT22;9295;44.484;11.240;2023-05-17T11:37:52;15.80;99.90
18339;DHT22;9295;44.484;11.240;2023-05-17T11:40:25;15.90;99.90
18339;DHT22;9295;44.484;11.240;2023-05-17T11:43:11;15.90;99.90
18339;DHT22;9295;44.484;11.240;2023-05-17T11:45:41;15.90;99.90
18339;DHT22;9295;44.484;11.240;2023-05-17T11:48:12;15.90;99.90
18339;DHT22;9295;44.484;11.240;2023-05-17T11:50:43;16.10;99.90
18339;DHT22;9295;44.484;11.240;2023-05-17T11:53:12;16.10;99.90
18339;DHT22;9295;44.484;11.240;2023-05-17T11:55:42;16.20;99.90
18339;DHT22;9295;44.484;11.240;2023-05-17T11:58:12;16.30;99.90
18339;DHT22;9295;44.484;11.240;2023-05-17T12:00:41;16.40;99.90
18339;DHT22;9295;44.484;11.240;2023-05-17T12:03:19;16.50;99.90
18339;DHT22;9295;44.484;11.240;2023-05-17T12:05:49;16.60;99.90
18339;DHT22;9295;44.484;11.240;2023-05-17T12:08:20;16.60;99.90
18339;DHT22;9295;44.484;11.240;2023-05-17T12:10:50;16.60;99.90
18339;DHT22;9295;44.484;11.240;2023-05-17T12:13:20;16.50;99.90
18339;DHT22;9295;44.484;11.240;2023-05-17T12:15:55;16.60;99.90
18339;DHT22;9295;44.484;11.240;2023-05-17T12:18:35;16.60;99.90
18339;DHT22;9295;44.484;11.240;2023-05-17T12:21:05;16.40;99.90
18339;DHT22;9295;44.484;11.240;2023-05-17T12:23:35;16.30;99.90
18339;DHT22;9295;44.484;11.240;2023-05-17T12:26:07;16.30;99.90
18339;DHT22;9295;44.484;11.240;2023-05-17T12:28:36;16.30;99.90
18339;DHT22;9295;44.484;11.240;2023-05-17T12:31:07;16.30;99.90
18339;DHT22;9295;44.484;11.240;2023-05-17T12:33:41;16.20;99.90
18339;DHT22;9295;44.484;11.240;2023-05-17T12:36:11;16.30;99.90
18339;DHT22;9295;44.484;11.240;2023-05-17T12:38:41;16.30;99.90
18339;DHT22;9295;44.484;11.240;2023-05-17T12:41:11;16.30;99.90
18339;DHT22;9295;44.484;11.240;2023-05-17T12:43:42;16.30;99.90
18339;DHT22;9295;44.484;11.240;2023-05-17T12:46:11;16.20;99.90
18339;DHT22;9295;44.484;11.240;2023-05-17T12:48:42;16.10;99.90
18339;DHT22;9295;44.484;11.240;2023-05-17T12:51:11;16.00;99.90
18339;DHT22;9295;44.484;11.240;2023-05-17T12:53:41;16.00;99.90
18339;DHT22;9295;44.484;11.240;2023-05-17T12:56:16;15.90;99.90
18339;DHT22;9295;44.484;11.240;2023-05-17T12:59:05;15.90;99.90
18339;DHT22;9295;44.484;11.240;2023-05-17T13:01:35;15.90;99.90
18339;DHT22;9295;44.484;11.240;2023-05-17T13:04:06;15.90;99.90
18339;DHT22;9295;44.484;11.240;2023-05-17T13:06:44;15.80;99.90
18339;DHT22;9295;44.484;11.240;2023-05-17T13:09:14;15.60;99.90
18339;DHT22;9295;44.484;11.240;2023-05-17T13:11:49;15.60;99.90
18339;DHT22;9295;44.484;11.240;2023-05-17T13:14:33;15.50;99.90
18339;DHT22;9295;44.484;11.240;2023-05-17T13:17:03;15.60;99.90
18339;DHT22;9295;44.484;11.240;2023-05-17T13:19:34;15.50;99.90
18339;DHT22;9295;44.484;11.240;2023-05-17T13:22:04;15.50;99.90
18339;DHT22;9295;44.484;11.240;2023-05-17T13:24:33;15.60;99.90
18339;DHT22;9295;44.484;11.240;2023-05-17T13:27:03;15.60;99.90
18339;DHT22;9295;44.484;11.240;2023-05-17T13:29:32;15.70;99.90
18339;DHT22;9295;44.484;11.240;2023-05-17T13:32:07;15.80;99.90
18339;DHT22;9295;44.484;11.240;2023-05-17T13:34:37;16.00;99.90
18339;DHT22;9295;44.484;11.240;2023-05-17T13:37:06;15.90;99.90
18339;DHT22;9295;44.484;11.240;2023-05-17T13:39:38;15.80;99.90
18339;DHT22;9295;44.484;11.240;2023-05-17T13:42:08;15.80;99.90
18339;DHT22;9295;44.484;11.240;2023-05-17T13:44:37;15.70;99.90
18339;DHT22;9295;44.484;11.240;2023-05-17T13:47:05;15.90;99.90
18339;DHT22;9295;44.484;11.240;2023-05-17T13:49:34;16.00;99.90
18339;DHT22;9295;44.484;11.240;2023-05-17T13:52:05;16.10;99.90
18339;DHT22;9295;44.484;11.240;2023-05-17T13:54:36;16.30;99.90
18339;DHT22;9295;44.484;11.240;2023-05-17T13:57:05;16.30;99.90
18339;DHT22;9295;44.484;11.240;2023-05-17T13:59:34;16.30;99.90
18339;DHT22;9295;44.484;11.240;2023-05-17T14:02:02;16.50;99.90
18339;DHT22;9295;44.484;11.240;2023-05-17T14:04:31;16.60;99.90
18339;DHT22;9295;44.484;11.240;2023-05-17T14:07:01;16.60;99.90
18339;DHT22;9295;44.484;11.240;2023-05-17T14:09:31;16.70;99.90
18339;DHT22;9295;44.484;11.240;2023-05-17T14:12:00;16.70;99.90
18339;DHT22;9295;44.484;11.240;2023-05-17T14:14:29;16.70;99.90
18339;DHT22;9295;44.484;11.240;2023-05-17T14:16:58;16.70;99.90
18339;DHT22;9295;44.484;11.240;2023-05-17T14:19:27;16.70;99.90
18339;DHT22;9295;44.484;11.240;2023-05-17T14:21:56;16.80;99.90
18339;DHT22;9295;44.484;11.240;2023-05-17T14:24:24;16.90;99.90
18339;DHT22;9295;44.484;11.240;2023-05-17T14:26:55;17.00;99.90
18339;DHT22;9295;44.484;11.240;2023-05-17T14:29:24;17.20;99.90
18339;DHT22;9295;44.484;11.240;2023-05-17T14:31:53;17.20;99.90
18339;DHT22;9295;44.484;11.240;2023-05-17T14:34:21;17.20;99.90
18339;DHT22;9295;44.484;11.240;2023-05-17T14:36:50;17.20;99.90
18339;DHT22;9295;44.484;11.240;2023-05-17T14:39:18;17.20;99.90
18339;DHT22;9295;44.484;11.240;2023-05-17T14:41:47;17.10;99.90
18339;DHT22;9295;44.484;11.240;2023-05-17T14:44:17;17.00;99.90
18339;DHT22;9295;44.484;11.240;2023-05-17T14:46:45;16.90;99.90
18339;DHT22;9295;44.484;11.240;2023-05-17T14:49:14;16.80;99.90
18339;DHT22;9295;44.484;11.240;2023-05-17T14:51:43;16.80;99.90
18339;DHT22;9295;44.484;11.240;2023-05-17T14:54:11;16.70;99.90
18339;DHT22;9295;44.484;11.240;2023-05-17T14:56:40;16.70;99.90
18339;DHT22;9295;44.484;11.240;2023-05-17T14:59:08;16.80;99.90
18339;DHT22;9295;44.484;11.240;2023-05-17T15:01:38;16.80;99.90
18339;DHT22;9295;44.484;11.240;2023-05-17T15:04:07;16.80;99.90
18339;DHT22;9295;44.484;11.240;2023-05-17T15:06:36;16.80;99.90
18339;DHT22;9295;44.484;11.240;2023-05-17T15:09:04;16.70;99.90
18339;DHT22;9295;44.484;11.240;2023-05-17T15:11:33;16.60;99.90
18339;DHT22;9295;44.484;11.240;2023-05-17T15:14:02;16.50;99.90
18339;DHT22;9295;44.484;11.240;2023-05-17T15:16:32;16.50;99.90
18339;DHT22;9295;44.484;11.240;2023-05-17T15:19:01;16.60;99.90
18339;DHT22;9295;44.484;11.240;2023-05-17T15:21:30;16.70;99.90
18339;DHT22;9295;44.484;11.240;2023-05-17T15:23:59;16.80;99.90
18339;DHT22;9295;44.484;11.240;2023-05-17T15:26:27;16.90;99.90
18339;DHT22;9295;44.484;11.240;2023-05-17T15:28:56;17.00;99.90
18339;DHT22;9295;44.484;11.240;2023-05-17T15:31:24;17.00;99.90
18339;DHT22;9295;44.484;11.240;2023-05-17T15:33:54;17.00;99.90
18339;DHT22;9295;44.484;11.240;2023-05-17T15:36:25;17.10;99.90
18339;DHT22;9295;44.484;11.240;2023-05-17T15:38:53;17.10;99.90
18339;DHT22;9295;44.484;11.240;2023-05-17T15:41:21;17.00;99.90
18339;DHT22;9295;44.484;11.240;2023-05-17T15:43:56;16.90;99.90
18339;DHT22;9295;44.484;11.240;2023-05-17T15:46:24;16.90;99.90
18339;DHT22;9295;44.484;11.240;2023-05-17T15:48:53;17.00;99.90
18339;DHT22;9295;44.484;11.240;2023-05-17T15:51:22;17.00;99.90